sensor_id;sensor_type;location;lat;lon;timestamp;temperature;humidity
18797;DHT22;9526;52.612;13.300;2022-12-18T00:00:44;-3.60;99.90
18797;DHT22;9526;52.612;13.300;2022-12-18T00:03:09;-3.50;99.90
18797;DHT22;9526;52.612;13.300;2022-12-18T00:05:35;-3.60;99.90
18797;DHT22;9526;52.612;13.300;2022-12-18T00:07:59;-3.50;99.90
18797;DHT22;9526;52.612;13.300;2022-12-18T00:10:23;-3.40;99.90
18797;DHT22;9526;52.612;13.300;2022-12-18T00:12:47;-3.50;99.90
18797;DHT22;9526;52.612;13.300;2022-12-18T00:15:10;-3.50;99.90
18797;DHT22;9526;52.612;13.300;2022-12-18T00:17:34;-3.60;99.90
18797;DHT22;9526;52.612;13.300;2022-12-18T00:19:57;-3.50;99.90
18797;DHT22;9526;52.612;13.300;2022-12-18T00:22:23;-3.60;99.90
18797;DHT22;9526;52.612;13.300;2022-12-18T00:24:46;-3.60;99.90
18797;DHT22;9526;52.612;13.300;2022-12-18T00:27:10;-3.60;99.90
18797;DHT22;9526;52.612;13.300;2022-12-18T00:29:34;-3.70;99.90
18797;DHT22;9526;52.612;13.300;2022-12-18T00:31:57;-3.70;99.90
18797;DHT22;9526;52.612;13.300;2022-12-18T00:34:21;-3.70;99.90
18797;DHT22;9526;52.612;13.300;2022-12-18T00:36:47;-3.60;99.90
18797;DHT22;9526;52.612;13.300;2022-12-18T00:39:13;-3.60;99.90
18797;DHT22;9526;52.612;13.300;2022-12-18T00:41:39;-3.60;99.90
18797;DHT22;9526;52.612;13.300;2022-12-18T00:44:20;-3.60;99.90
18797;DHT22;9526;52.612;13.300;2022-12-18T00:46:46;-3.60;99.90
18797;DHT22;9526;52.612;13.300;2022-12-18T00:49:10;-3.70;99.90
18797;DHT22;9526;52.612;13.300;2022-12-18T00:51:34;-3.70;99.90
18797;DHT22;9526;52.612;13.300;2022-12-18T00:53:58;-3.70;99.90
18797;DHT22;9526;52.612;13.300;2022-12-18T00:56:23;-3.80;99.90
18797;DHT22;9526;52.612;13.300;2022-12-18T00:58:48;-3.90;99.90
18797;DHT22;9526;52.612;13.300;2022-12-18T01:01:12;-3.80;99.90
18797;DHT22;9526;52.612;13.300;2022-12-18T01:03:36;-3.80;99.90
18797;DHT22;9526;52.612;13.300;2022-12-18T01:06:05;-3.80;99.90
18797;DHT22;9526;52.612;13.300;2022-12-18T01:08:30;-3.80;99.90
18797;DHT22;9526;52.612;13.300;2022-12-18T01:10:54;-3.80;99.90
18797;DHT22;9526;52.612;13.300;2022-12-18T01:13:19;-3.80;99.90
18797;DHT22;9526;52.612;13.300;2022-12-18T01:15:48;-3.80;99.90
18797;DHT22;9526;52.612;13.300;2022-12-18T01:18:12;-3.80;99.90
18797;DHT22;9526;52.612;13.300;2022-12-18T01:20:38;-3.70;99.90
18797;DHT22;9526;52.612;13.300;2022-12-18T01:23:01;-3.70;99.90
18797;DHT22;9526;52.612;13.300;2022-12-18T01:25:25;-3.80;99.90
18797;DHT22;9526;52.612;13.300;2022-12-18T01:27:49;-3.80;99.90
18797;DHT22;9526;52.612;13.300;2022-12-18T01:30:14;-3.90;99.90
18797;DHT22;9526;52.612;13.300;2022-12-18T01:32:38;-3.90;99.90
18797;DHT22;9526;52.612;13.300;2022-12-18T01:35:02;-3.80;99.90
18797;DHT22;9526;52.612;13.300;2022-12-18T01:37:26;-4.10;99.90
18797;DHT22;9526;52.612;13.300;2022-12-18T01:39:50;-4.10;99.90
18797;DHT22;9526;52.612;13.300;2022-12-18T01:42:15;-4.10;99.90
18797;DHT22;9526;52.612;13.300;2022-12-18T01:45:04;-4.10;99.90
18797;DHT22;9526;52.612;13.300;2022-12-18T01:47:44;-4.20;99.90
18797;DHT22;9526;52.612;13.300;2022-12-18T01:50:13;-4.30;99.90
18797;DHT22;9526;52.612;13.300;2022-12-18T01:52:41;-4.20;99.90
18797;DHT22;9526;52.612;13.300;2022-12-18T01:55:07;-4.20;99.90
18797;DHT22;9526;52.612;13.300;2022-12-18T01:57:31;-4.20;99.90
18797;DHT22;9526;52.612;13.300;2022-12-18T01:59:59;-4.20;99.90
18797;DHT22;9526;52.612;13.300;2022-12-18T02:02:33;-4.20;99.90
18797;DHT22;9526;52.612;13.300;2022-12-18T02:04:59;-4.20;99.90
18797;DHT22;9526;52.612;13.300;2022-12-18T02:07:29;-4.40;99.90
18797;DHT22;9526;52.612;13.300;2022-12-18T02:10:02;-4.40;99.90
18797;DHT22;9526;52.612;13.300;2022-12-18T02:12:38;-4.40;99.90
18797;DHT22;9526;52.612;13.300;2022-12-18T02:15:12;-4.40;99.90
18797;DHT22;9526;52.612;13.300;2022-12-18T02:17:43;-4.50;99.90
18797;DHT22;9526;52.612;13.300;2022-12-18T02:20:16;-4.50;99.90
18797;DHT22;9526;52.612;13.300;2022-12-18T02:22:51;-4.40;99.90
18797;DHT22;9526;52.612;13.300;2022-12-18T02:25:33;-4.40;99.90
18797;DHT22;9526;52.612;13.300;2022-12-18T02:28:07;-4.30;99.90
18797;DHT22;9526;52.612;13.300;2022-12-18T02:30:35;-4.40;99.90
18797;DHT22;9526;52.612;13.300;2022-12-18T02:33:05;-4.40;99.90
18797;DHT22;9526;52.612;13.300;2022-12-18T02:35:31;-4.40;99.90
18797;DHT22;9526;52.612;13.300;2022-12-18T02:37:56;-4.50;99.90
18797;DHT22;9526;52.612;13.300;2022-12-18T02:40:26;-4.50;99.90
18797;DHT22;9526;52.612;13.300;2022-12-18T02:42:52;-4.50;99.90
18797;DHT22;9526;52.612;13.300;2022-12-18T02:45:19;-4.50;99.90
18797;DHT22;9526;52.612;13.300;2022-12-18T02:47:47;-4.50;99.90
18797;DHT22;9526;52.612;13.300;2022-12-18T02:50:18;-4.50;99.90
18797;DHT22;9526;52.612;13.300;2022-12-18T02:53:00;-4.40;99.90
18797;DHT22;9526;52.612;13.300;2022-12-18T02:55:34;-4.50;99.90
18797;DHT22;9526;52.612;13.300;2022-12-18T02:58:13;-4.40;99.90
18797;DHT22;9526;52.612;13.300;2022-12-18T03:00:48;-4.50;99.90
18797;DHT22;9526;52.612;13.300;2022-12-18T03:03:19;-4.50;99.90
18797;DHT22;9526;52.612;13.300;2022-12-18T03:05:51;-4.50;99.90
18797;DHT22;9526;52.612;13.300;2022-12-18T03:08:20;-4.50;99.90
18797;DHT22;9526;52.612;13.300;2022-12-18T03:10:50;-4.50;99.90
18797;DHT22;9526;52.612;13.300;2022-12-18T03:13:22;-4.50;99.90
18797;DHT22;9526;52.612;13.300;2022-12-18T03:15:57;-4.40;99.90
18797;DHT22;9526;52.612;13.300;2022-12-18T03:18:24;-4.30;99.90
18797;DHT22;9526;52.612;13.300;2022-12-18T03:20:51;-4.30;99.90
18797;DHT22;9526;52.612;13.300;2022-12-18T03:23:22;-4.30;99.90
18797;DHT22;9526;52.612;13.300;2022-12-18T03:25:49;-4.30;99.90
18797;DHT22;9526;52.612;13.300;2022-12-18T03:28:20;-4.30;99.90
18797;DHT22;9526;52.612;13.300;2022-12-18T03:30:55;-4.40;99.90
18797;DHT22;9526;52.612;13.300;2022-12-18T03:33:26;-4.50;99.90
18797;DHT22;9526;52.612;13.300;2022-12-18T03:35:52;-4.50;99.90
18797;DHT22;9526;52.612;13.300;2022-12-18T03:38:17;-4.40;99.90
18797;DHT22;9526;52.612;13.300;2022-12-18T03:40:50;-4.50;99.90
18797;DHT22;9526;52.612;13.300;2022-12-18T03:43:23;-4.50;99.90
18797;DHT22;9526;52.612;13.300;2022-12-18T03:46:02;-4.50;99.90
18797;DHT22;9526;52.612;13.300;2022-12-18T03:48:31;-4.70;99.90
18797;DHT22;9526;52.612;13.300;2022-12-18T03:51:07;-4.50;99.90
18797;DHT22;9526;52.612;13.300;2022-12-18T03:53:37;-4.60;99.90
18797;DHT22;9526;52.612;13.300;2022-12-18T03:56:06;-4.60;99.90
18797;DHT22;9526;52.612;13.300;2022-12-18T03:58:36;-4.60;99.90
18797;DHT22;9526;52.612;13.300;2022-12-18T04:01:17;-4.60;99.90
18797;DHT22;9526;52.612;13.300;2022-12-18T04:03:46;-4.50;99.90
18797;DHT22;9526;52.612;13.300;2022-12-18T04:06:14;-4.50;99.90
18797;DHT22;9526;52.612;13.300;2022-12-18T04:08:39;-4.50;99.90
18797;DHT22;9526;52.612;13.300;2022-12-18T04:11:07;-4.40;99.90
18797;DHT22;9526;52.612;13.300;2022-12-18T04:13:35;-4.40;99.90
18797;DHT22;9526;52.612;13.300;2022-12-18T04:16:06;-4.40;99.90
18797;DHT22;9526;52.612;13.300;2022-12-18T04:18:36;-4.40;99.90
18797;DHT22;9526;52.612;13.300;2022-12-18T04:21:00;-4.40;99.90
18797;DHT22;9526;52.612;13.300;2022-12-18T04:23:24;-4.40;99.90
18797;DHT22;9526;52.612;13.300;2022-12-18T04:25:51;-4.40;99.90
18797;DHT22;9526;52.612;13.300;2022-12-18T04:28:28;-4.40;99.90
18797;DHT22;9526;52.612;13.300;2022-12-18T04:30:52;-4.40;99.90
18797;DHT22;9526;52.612;13.300;2022-12-18T04:33:16;-4.40;99.90
18797;DHT22;9526;52.612;13.300;2022-12-18T04:35:42;-4.40;99.90
18797;DHT22;9526;52.612;13.300;2022-12-18T04:38:06;-4.40;99.90
18797;DHT22;9526;52.612;13.300;2022-12-18T04:40:32;-4.50;99.90
18797;DHT22;9526;52.612;13.300;2022-12-18T04:43:04;-4.50;99.90
18797;DHT22;9526;52.612;13.300;2022-12-18T04:45:28;-4.50;99.90
18797;DHT22;9526;52.612;13.300;2022-12-18T04:47:51;-4.60;99.90
18797;DHT22;9526;52.612;13.300;2022-12-18T04:50:15;-4.70;99.90
18797;DHT22;9526;52.612;13.300;2022-12-18T04:52:41;-4.80;99.90
18797;DHT22;9526;52.612;13.300;2022-12-18T04:55:05;-4.80;99.90
18797;DHT22;9526;52.612;13.300;2022-12-18T04:57:29;-4.80;99.90
18797;DHT22;9526;52.612;13.300;2022-12-18T04:59:53;-4.70;99.90
18797;DHT22;9526;52.612;13.300;2022-12-18T05:02:16;-4.90;99.90
18797;DHT22;9526;52.612;13.300;2022-12-18T05:04:40;-4.90;99.90
18797;DHT22;9526;52.612;13.300;2022-12-18T05:07:04;-5.00;99.90
18797;DHT22;9526;52.612;13.300;2022-12-18T05:09:29;-5.00;99.90
18797;DHT22;9526;52.612;13.300;2022-12-18T05:11:53;-5.00;99.90
18797;DHT22;9526;52.612;13.300;2022-12-18T05:14:17;-5.00;99.90
18797;DHT22;9526;52.612;13.300;2022-12-18T05:16:40;-5.00;99.90
18797;DHT22;9526;52.612;13.300;2022-12-18T05:19:05;-5.00;99.90
18797;DHT22;9526;52.612;13.300;2022-12-18T05:21:28;-5.00;99.90
18797;DHT22;9526;52.612;13.300;2022-12-18T05:23:52;-5.00;99.90
18797;DHT22;9526;52.612;13.300;2022-12-18T05:26:18;-4.90;99.90
18797;DHT22;9526;52.612;13.300;2022-12-18T05:28:42;-4.90;99.90
18797;DHT22;9526;52.612;13.300;2022-12-18T05:31:06;-4.90;99.90
18797;DHT22;9526;52.612;13.300;2022-12-18T05:33:31;-4.90;99.90
18797;DHT22;9526;52.612;13.300;2022-12-18T05:35:57;-4.90;99.90
18797;DHT22;9526;52.612;13.300;2022-12-18T05:38:26;-4.90;99.90
18797;DHT22;9526;52.612;13.300;2022-12-18T05:40:51;-4.90;99.90
18797;DHT22;9526;52.612;13.300;2022-12-18T05:43:18;-4.80;99.90
18797;DHT22;9526;52.612;13.300;2022-12-18T05:45:43;-4.80;99.90
18797;DHT22;9526;52.612;13.300;2022-12-18T05:48:08;-4.80;99.90
18797;DHT22;9526;52.612;13.300;2022-12-18T05:50:34;-4.80;99.90
18797;DHT22;9526;52.612;13.300;2022-12-18T05:52:59;-4.80;99.90
18797;DHT22;9526;52.612;13.300;2022-12-18T05:55:22;-4.80;99.90
18797;DHT22;9526;52.612;13.300;2022-12-18T05:57:46;-4.80;99.90
18797;DHT22;9526;52.612;13.300;2022-12-18T06:00:13;-4.80;99.90
18797;DHT22;9526;52.612;13.300;2022-12-18T06:02:38;-4.80;99.90
18797;DHT22;9526;52.612;13.300;2022-12-18T06:05:01;-4.90;99.90
18797;DHT22;9526;52.612;13.300;2022-12-18T06:07:25;-5.00;99.90
18797;DHT22;9526;52.612;13.300;2022-12-18T06:09:49;-5.00;99.90
18797;DHT22;9526;52.612;13.300;2022-12-18T06:12:13;-5.10;99.90
18797;DHT22;9526;52.612;13.300;2022-12-18T06:14:36;-5.10;99.90
18797;DHT22;9526;52.612;13.300;2022-12-18T06:17:02;-5.10;99.90
18797;DHT22;9526;52.612;13.300;2022-12-18T06:19:26;-5.10;99.90
18797;DHT22;9526;52.612;13.300;2022-12-18T06:21:49;-5.10;99.90
18797;DHT22;9526;52.612;13.300;2022-12-18T06:24:13;-5.10;99.90
18797;DHT22;9526;52.612;13.300;2022-12-18T06:26:37;-4.90;99.90
18797;DHT22;9526;52.612;13.300;2022-12-18T06:29:01;-4.90;99.90
18797;DHT22;9526;52.612;13.300;2022-12-18T06:31:25;-4.90;99.90
18797;DHT22;9526;52.612;13.300;2022-12-18T06:33:51;-4.90;99.90
18797;DHT22;9526;52.612;13.300;2022-12-18T06:36:15;-4.90;99.90
18797;DHT22;9526;52.612;13.300;2022-12-18T06:38:40;-5.00;99.90
18797;DHT22;9526;52.612;13.300;2022-12-18T06:41:06;-5.00;99.90
18797;DHT22;9526;52.612;13.300;2022-12-18T06:43:31;-5.00;99.90
18797;DHT22;9526;52.612;13.300;2022-12-18T06:45:58;-5.00;99.90
18797;DHT22;9526;52.612;13.300;2022-12-18T06:48:22;-5.00;99.90
18797;DHT22;9526;52.612;13.300;2022-12-18T06:50:47;-5.00;99.90
18797;DHT22;9526;52.612;13.300;2022-12-18T06:53:11;-4.90;99.90
18797;DHT22;9526;52.612;13.300;2022-12-18T06:55:35;-4.90;99.90
18797;DHT22;9526;52.612;13.300;2022-12-18T06:57:59;-5.00;99.90
18797;DHT22;9526;52.612;13.300;2022-12-18T07:00:23;-4.90;99.90
18797;DHT22;9526;52.612;13.300;2022-12-18T07:02:46;-5.00;99.90
18797;DHT22;9526;52.612;13.300;2022-12-18T07:05:10;-4.90;99.90
18797;DHT22;9526;52.612;13.300;2022-12-18T07:07:35;-4.90;99.90
18797;DHT22;9526;52.612;13.300;2022-12-18T07:09:59;-4.80;99.90
18797;DHT22;9526;52.612;13.300;2022-12-18T07:12:23;-4.80;99.90
18797;DHT22;9526;52.612;13.300;2022-12-18T07:14:46;-4.80;99.90
18797;DHT22;9526;52.612;13.300;2022-12-18T07:17:10;-4.80;99.90
18797;DHT22;9526;52.612;13.300;2022-12-18T07:19:34;-4.80;99.90
18797;DHT22;9526;52.612;13.300;2022-12-18T07:21:58;-4.80;99.90
18797;DHT22;9526;52.612;13.300;2022-12-18T07:24:23;-4.90;99.90
18797;DHT22;9526;52.612;13.300;2022-12-18T07:26:46;-5.00;99.90
18797;DHT22;9526;52.612;13.300;2022-12-18T07:29:10;-5.10;99.90
18797;DHT22;9526;52.612;13.300;2022-12-18T07:31:34;-5.00;99.90
18797;DHT22;9526;52.612;13.300;2022-12-18T07:33:58;-5.10;99.90
18797;DHT22;9526;52.612;13.300;2022-12-18T07:36:22;-5.10;99.90
18797;DHT22;9526;52.612;13.300;2022-12-18T07:38:47;-4.90;99.90
18797;DHT22;9526;52.612;13.300;2022-12-18T07:41:13;-4.90;99.90
18797;DHT22;9526;52.612;13.300;2022-12-18T07:43:38;-5.10;99.90
18797;DHT22;9526;52.612;13.300;2022-12-18T07:46:03;-5.00;99.90
18797;DHT22;9526;52.612;13.300;2022-12-18T07:48:27;-5.00;99.90
18797;DHT22;9526;52.612;13.300;2022-12-18T07:50:51;-5.00;99.90
18797;DHT22;9526;52.612;13.300;2022-12-18T07:53:15;-5.00;99.90
18797;DHT22;9526;52.612;13.300;2022-12-18T07:55:39;-5.00;99.90
18797;DHT22;9526;52.612;13.300;2022-12-18T07:58:24;-5.00;99.90
18797;DHT22;9526;52.612;13.300;2022-12-18T08:00:48;-5.10;99.90
18797;DHT22;9526;52.612;13.300;2022-12-18T08:03:12;-5.00;99.90
18797;DHT22;9526;52.612;13.300;2022-12-18T08:05:39;-5.00;99.90
18797;DHT22;9526;52.612;13.300;2022-12-18T08:08:02;-5.00;99.90
18797;DHT22;9526;52.612;13.300;2022-12-18T08:10:26;-4.90;99.90
18797;DHT22;9526;52.612;13.300;2022-12-18T08:12:50;-4.80;99.90
18797;DHT22;9526;52.612;13.300;2022-12-18T08:15:16;-4.70;99.90
18797;DHT22;9526;52.612;13.300;2022-12-18T08:17:40;-4.70;99.90
18797;DHT22;9526;52.612;13.300;2022-12-18T08:20:04;-4.70;99.90
18797;DHT22;9526;52.612;13.300;2022-12-18T08:22:28;-4.70;99.90
18797;DHT22;9526;52.612;13.300;2022-12-18T08:24:51;-4.70;99.90
18797;DHT22;9526;52.612;13.300;2022-12-18T08:27:15;-4.60;99.90
18797;DHT22;9526;52.612;13.300;2022-12-18T08:29:50;-4.50;99.90
18797;DHT22;9526;52.612;13.300;2022-12-18T08:32:15;-4.50;99.90
18797;DHT22;9526;52.612;13.300;2022-12-18T08:34:39;-4.40;99.90
18797;DHT22;9526;52.612;13.300;2022-12-18T08:37:03;-4.40;99.90
18797;DHT22;9526;52.612;13.300;2022-12-18T08:39:26;-4.40;99.90
18797;DHT22;9526;52.612;13.300;2022-12-18T08:41:50;-4.40;99.90
18797;DHT22;9526;52.612;13.300;2022-12-18T08:44:31;-4.30;99.90
18797;DHT22;9526;52.612;13.300;2022-12-18T08:47:01;-4.30;99.90
18797;DHT22;9526;52.612;13.300;2022-12-18T08:49:26;-4.30;99.90
18797;DHT22;9526;52.612;13.300;2022-12-18T08:51:54;-4.30;99.90
18797;DHT22;9526;52.612;13.300;2022-12-18T08:54:19;-4.30;99.90
18797;DHT22;9526;52.612;13.300;2022-12-18T08:56:42;-4.20;99.90
18797;DHT22;9526;52.612;13.300;2022-12-18T08:59:06;-4.10;99.90
18797;DHT22;9526;52.612;13.300;2022-12-18T09:01:34;-4.10;99.90
18797;DHT22;9526;52.612;13.300;2022-12-18T09:03:57;-4.10;99.90
18797;DHT22;9526;52.612;13.300;2022-12-18T09:06:23;-4.00;99.90
18797;DHT22;9526;52.612;13.300;2022-12-18T09:08:48;-4.10;99.90
18797;DHT22;9526;52.612;13.300;2022-12-18T09:11:14;-4.10;99.90
18797;DHT22;9526;52.612;13.300;2022-12-18T09:13:38;-4.20;99.90
18797;DHT22;9526;52.612;13.300;2022-12-18T09:16:03;-4.20;99.90
18797;DHT22;9526;52.612;13.300;2022-12-18T09:18:27;-4.20;99.90
18797;DHT22;9526;52.612;13.300;2022-12-18T09:20:51;-4.20;99.90
18797;DHT22;9526;52.612;13.300;2022-12-18T09:23:16;-4.00;99.90
18797;DHT22;9526;52.612;13.300;2022-12-18T09:25:40;-4.10;99.90
18797;DHT22;9526;52.612;13.300;2022-12-18T09:28:05;-4.10;99.90
18797;DHT22;9526;52.612;13.300;2022-12-18T09:30:32;-3.90;99.90
18797;DHT22;9526;52.612;13.300;2022-12-18T09:32:57;-4.00;99.90
18797;DHT22;9526;52.612;13.300;2022-12-18T09:35:21;-4.00;99.90
18797;DHT22;9526;52.612;13.300;2022-12-18T09:37:45;-3.80;99.90
18797;DHT22;9526;52.612;13.300;2022-12-18T09:40:13;-3.80;99.90
18797;DHT22;9526;52.612;13.300;2022-12-18T09:42:37;-3.90;99.90
18797;DHT22;9526;52.612;13.300;2022-12-18T09:45:02;-3.70;99.90
18797;DHT22;9526;52.612;13.300;2022-12-18T09:47:29;-3.70;99.90
18797;DHT22;9526;52.612;13.300;2022-12-18T09:49:58;-3.70;99.90
18797;DHT22;9526;52.612;13.300;2022-12-18T09:52:26;-3.80;99.90
18797;DHT22;9526;52.612;13.300;2022-12-18T09:54:56;-3.80;99.90
18797;DHT22;9526;52.612;13.300;2022-12-18T09:57:25;-3.90;99.90
18797;DHT22;9526;52.612;13.300;2022-12-18T09:59:54;-3.90;99.90
18797;DHT22;9526;52.612;13.300;2022-12-18T10:02:21;-3.80;99.90
18797;DHT22;9526;52.612;13.300;2022-12-18T10:04:56;-3.70;99.90
18797;DHT22;9526;52.612;13.300;2022-12-18T10:07:32;-3.60;99.90
18797;DHT22;9526;52.612;13.300;2022-12-18T10:10:06;-3.50;99.90
18797;DHT22;9526;52.612;13.300;2022-12-18T10:12:43;-3.50;99.90
18797;DHT22;9526;52.612;13.300;2022-12-18T10:15:15;-3.70;99.90
18797;DHT22;9526;52.612;13.300;2022-12-18T10:17:48;-3.50;99.90
18797;DHT22;9526;52.612;13.300;2022-12-18T10:20:19;-3.50;99.90
18797;DHT22;9526;52.612;13.300;2022-12-18T10:22:53;-3.60;99.90
18797;DHT22;9526;52.612;13.300;2022-12-18T10:25:25;-3.60;99.90
18797;DHT22;9526;52.612;13.300;2022-12-18T10:27:56;-3.70;99.90
18797;DHT22;9526;52.612;13.300;2022-12-18T10:30:22;-3.50;99.90
18797;DHT22;9526;52.612;13.300;2022-12-18T10:32:47;-3.50;99.90
18797;DHT22;9526;52.612;13.300;2022-12-18T10:35:16;-3.60;99.90
18797;DHT22;9526;52.612;13.300;2022-12-18T10:38:01;-3.40;99.90
18797;DHT22;9526;52.612;13.300;2022-12-18T10:40:27;-3.40;99.90
18797;DHT22;9526;52.612;13.300;2022-12-18T10:43:03;-3.40;99.90
18797;DHT22;9526;52.612;13.300;2022-12-18T10:45:28;-3.30;99.90
18797;DHT22;9526;52.612;13.300;2022-12-18T10:47:52;-3.20;99.90
18797;DHT22;9526;52.612;13.300;2022-12-18T10:50:20;-3.20;99.90
18797;DHT22;9526;52.612;13.300;2022-12-18T10:53:19;-3.10;99.90
18797;DHT22;9526;52.612;13.300;2022-12-18T10:55:46;-3.10;99.90
18797;DHT22;9526;52.612;13.300;2022-12-18T10:58:18;-3.10;99.90
18797;DHT22;9526;52.612;13.300;2022-12-18T11:01:05;-3.10;99.90
18797;DHT22;9526;52.612;13.300;2022-12-18T11:03:33;-3.00;99.90
18797;DHT22;9526;52.612;13.300;2022-12-18T11:06:03;-3.10;99.90
18797;DHT22;9526;52.612;13.300;2022-12-18T11:08:28;-3.10;99.90
18797;DHT22;9526;52.612;13.300;2022-12-18T11:10:52;-3.00;99.90
18797;DHT22;9526;52.612;13.300;2022-12-18T11:13:19;-2.90;99.90
18797;DHT22;9526;52.612;13.300;2022-12-18T11:15:44;-2.90;99.90
18797;DHT22;9526;52.612;13.300;2022-12-18T11:18:17;-2.80;99.90
18797;DHT22;9526;52.612;13.300;2022-12-18T11:20:50;-2.90;99.90
18797;DHT22;9526;52.612;13.300;2022-12-18T11:23:20;-2.70;99.90
18797;DHT22;9526;52.612;13.300;2022-12-18T11:25:51;-2.70;99.90
18797;DHT22;9526;52.612;13.300;2022-12-18T11:28:37;-2.60;99.90
18797;DHT22;9526;52.612;13.300;2022-12-18T11:31:18;-2.50;99.90
18797;DHT22;9526;52.612;13.300;2022-12-18T11:33:50;-2.50;99.90
18797;DHT22;9526;52.612;13.300;2022-12-18T11:36:46;-2.60;99.90
18797;DHT22;9526;52.612;13.300;2022-12-18T11:39:17;-2.50;99.90
18797;DHT22;9526;52.612;13.300;2022-12-18T11:41:49;-2.30;99.90
18797;DHT22;9526;52.612;13.300;2022-12-18T11:44:41;-2.40;99.90
18797;DHT22;9526;52.612;13.300;2022-12-18T11:47:17;-2.40;99.90
18797;DHT22;9526;52.612;13.300;2022-12-18T11:49:48;-2.40;99.90
18797;DHT22;9526;52.612;13.300;2022-12-18T11:52:18;-2.30;99.90
18797;DHT22;9526;52.612;13.300;2022-12-18T11:54:44;-2.40;99.90
18797;DHT22;9526;52.612;13.300;2022-12-18T11:57:16;-2.50;99.90
18797;DHT22;9526;52.612;13.300;2022-12-18T11:59:55;-2.50;99.90
18797;DHT22;9526;52.612;13.300;2022-12-18T12:02:50;-2.20;99.90
18797;DHT22;9526;52.612;13.300;2022-12-18T12:05:44;-2.30;99.90
18797;DHT22;9526;52.612;13.300;2022-12-18T12:08:20;-2.30;99.90
18797;DHT22;9526;52.612;13.300;2022-12-18T12:10:57;-2.40;99.90
18797;DHT22;9526;52.612;13.300;2022-12-18T12:13:38;-2.60;99.90
18797;DHT22;9526;52.612;13.300;2022-12-18T12:16:15;-2.60;99.90
18797;DHT22;9526;52.612;13.300;2022-12-18T12:18:50;-2.60;99.90
18797;DHT22;9526;52.612;13.300;2022-12-18T12:21:25;-2.60;99.90
18797;DHT22;9526;52.612;13.300;2022-12-18T12:23:57;-2.60;99.90
18797;DHT22;9526;52.612;13.300;2022-12-18T12:26:30;-2.70;99.90
18797;DHT22;9526;52.612;13.300;2022-12-18T12:29:04;-2.70;99.90
18797;DHT22;9526;52.612;13.300;2022-12-18T12:32:02;-2.70;99.90
18797;DHT22;9526;52.612;13.300;2022-12-18T12:34:34;-2.70;99.90
18797;DHT22;9526;52.612;13.300;2022-12-18T12:37:17;-2.60;99.90
18797;DHT22;9526;52.612;13.300;2022-12-18T12:40:03;-2.60;99.90
18797;DHT22;9526;52.612;13.300;2022-12-18T12:42:52;-2.60;99.90
18797;DHT22;9526;52.612;13.300;2022-12-18T12:45:40;-2.40;99.90
18797;DHT22;9526;52.612;13.300;2022-12-18T12:48:16;-2.70;99.90
18797;DHT22;9526;52.612;13.300;2022-12-18T12:50:43;-2.70;99.90
18797;DHT22;9526;52.612;13.300;2022-12-18T12:53:12;-2.60;99.90
18797;DHT22;9526;52.612;13.300;2022-12-18T12:55:42;-2.50;99.90
18797;DHT22;9526;52.612;13.300;2022-12-18T12:58:14;-2.50;99.90
18797;DHT22;9526;52.612;13.300;2022-12-18T13:00:44;-2.80;99.90
18797;DHT22;9526;52.612;13.300;2022-12-18T13:03:27;-2.80;99.90
18797;DHT22;9526;52.612;13.300;2022-12-18T13:05:59;-2.70;99.90
18797;DHT22;9526;52.612;13.300;2022-12-18T13:08:26;-2.60;99.90
18797;DHT22;9526;52.612;13.300;2022-12-18T13:11:32;-2.80;99.90
18797;DHT22;9526;52.612;13.300;2022-12-18T13:14:23;-2.80;99.90
18797;DHT22;9526;52.612;13.300;2022-12-18T13:16:50;-2.70;99.90
18797;DHT22;9526;52.612;13.300;2022-12-18T13:19:22;-2.60;99.90
18797;DHT22;9526;52.612;13.300;2022-12-18T13:21:53;-2.60;99.90
18797;DHT22;9526;52.612;13.300;2022-12-18T13:24:25;-2.50;99.90
18797;DHT22;9526;52.612;13.300;2022-12-18T13:26:50;-2.50;99.90
18797;DHT22;9526;52.612;13.300;2022-12-18T13:29:42;-2.60;99.90
18797;DHT22;9526;52.612;13.300;2022-12-18T13:32:19;-2.50;99.90
18797;DHT22;9526;52.612;13.300;2022-12-18T13:34:45;-2.50;99.90
18797;DHT22;9526;52.612;13.300;2022-12-18T13:37:41;-2.50;99.90
18797;DHT22;9526;52.612;13.300;2022-12-18T13:43:27;-2.50;99.90
18797;DHT22;9526;52.612;13.300;2022-12-18T13:46:16;-2.60;99.90
18797;DHT22;9526;52.612;13.300;2022-12-18T13:48:50;-2.60;99.90
18797;DHT22;9526;52.612;13.300;2022-12-18T13:51:17;-2.60;99.90
18797;DHT22;9526;52.612;13.300;2022-12-18T13:53:44;-2.60;99.90
18797;DHT22;9526;52.612;13.300;2022-12-18T13:56:16;-2.70;99.90
18797;DHT22;9526;52.612;13.300;2022-12-18T13:58:45;-2.50;99.90
18797;DHT22;9526;52.612;13.300;2022-12-18T14:01:22;-2.50;99.90
18797;DHT22;9526;52.612;13.300;2022-12-18T14:03:46;-2.70;99.90
18797;DHT22;9526;52.612;13.300;2022-12-18T14:06:11;-2.70;99.90
18797;DHT22;9526;52.612;13.300;2022-12-18T14:08:40;-2.60;99.90
18797;DHT22;9526;52.612;13.300;2022-12-18T14:11:06;-2.70;99.90
18797;DHT22;9526;52.612;13.300;2022-12-18T14:13:35;-2.60;99.90
18797;DHT22;9526;52.612;13.300;2022-12-18T14:16:02;-2.60;99.90
18797;DHT22;9526;52.612;13.300;2022-12-18T14:18:34;-2.60;99.90
18797;DHT22;9526;52.612;13.300;2022-12-18T14:21:03;-2.60;99.90
18797;DHT22;9526;52.612;13.300;2022-12-18T14:23:30;-2.50;99.90
18797;DHT22;9526;52.612;13.300;2022-12-18T14:25:55;-2.50;99.90
18797;DHT22;9526;52.612;13.300;2022-12-18T14:28:26;-2.50;99.90
18797;DHT22;9526;52.612;13.300;2022-12-18T14:30:50;-2.40;99.90
18797;DHT22;9526;52.612;13.300;2022-12-18T14:33:16;-2.50;99.90
18797;DHT22;9526;52.612;13.300;2022-12-18T14:35:53;-2.60;99.90
18797;DHT22;9526;52.612;13.300;2022-12-18T14:38:22;-2.30;99.90
18797;DHT22;9526;52.612;13.300;2022-12-18T14:40:53;-2.60;99.90
18797;DHT22;9526;52.612;13.300;2022-12-18T14:43:32;-2.60;99.90
18797;DHT22;9526;52.612;13.300;2022-12-18T14:45:57;-2.70;99.90
18797;DHT22;9526;52.612;13.300;2022-12-18T14:48:31;-2.70;99.90
18797;DHT22;9526;52.612;13.300;2022-12-18T14:51:01;-2.90;99.90
18797;DHT22;9526;52.612;13.300;2022-12-18T14:53:33;-2.80;99.90
18797;DHT22;9526;52.612;13.300;2022-12-18T14:55:59;-2.90;99.90
18797;DHT22;9526;52.612;13.300;2022-12-18T14:58:23;-2.80;99.90
18797;DHT22;9526;52.612;13.300;2022-12-18T15:00:48;-2.80;99.90
18797;DHT22;9526;52.612;13.300;2022-12-18T15:03:17;-2.70;99.90
18797;DHT22;9526;52.612;13.300;2022-12-18T15:05:42;-2.70;99.90
18797;DHT22;9526;52.612;13.300;2022-12-18T15:08:34;-2.70;99.90
18797;DHT22;9526;52.612;13.300;2022-12-18T15:10:59;-2.70;99.90
18797;DHT22;9526;52.612;13.300;2022-12-18T15:13:24;-2.60;99.90
18797;DHT22;9526;52.612;13.300;2022-12-18T15:15:48;-2.50;99.90
18797;DHT22;9526;52.612;13.300;2022-12-18T15:18:15;-2.60;99.90
18797;DHT22;9526;52.612;13.300;2022-12-18T15:20:41;-2.70;99.90
18797;DHT22;9526;52.612;13.300;2022-12-18T15:23:14;-2.70;99.90
18797;DHT22;9526;52.612;13.300;2022-12-18T15:25:40;-2.60;99.90
18797;DHT22;9526;52.612;13.300;2022-12-18T15:28:12;-2.80;99.90
18797;DHT22;9526;52.612;13.300;2022-12-18T15:31:01;-2.80;99.90
18797;DHT22;9526;52.612;13.300;2022-12-18T15:33:30;-2.80;99.90
18797;DHT22;9526;52.612;13.300;2022-12-18T15:35:58;-2.80;99.90
18797;DHT22;9526;52.612;13.300;2022-12-18T15:38:23;-2.90;99.90
18797;DHT22;9526;52.612;13.300;2022-12-18T15:40:48;-2.90;99.90
18797;DHT22;9526;52.612;13.300;2022-12-18T15:43:12;-2.90;99.90